Lewiston, California
Current Conditions -  °F | °C
As of 11:15 PM on Thursday 27 Nov 2014 (Local Time) from KO54 Reporting Station
NA  
Wind Chill:   Ceiling: NA
Heat Index:   Visibility: 1.2mi
Dew Point:   Wind: 0mph
Humidity: 93%   Direction: NA
Pressure: 30.06"   Gusts: NA
Location:  40.71°N, 122.81°W
Report Text: KO54 280715Z AUTO 00000KT 1 1/4SM 05/04 A3006 RMK AO1
Loading
Personal Weather Stations






























Interactive Weather Map New forecast layout! Learn more

10-Day Weather Forecast

Advertisements
Track Severe Weather on mobile